マガダン・ソコル空港の過去48時間の天気

マガダン・ソコル空港 (Magadan)

現在時刻: 7/13 02:26 +11 (7/12 15:26 UTC) 以下の時間は現地時間です。

過去48時間のMETAR気象情報
時間 風向 風速(m/s) 視程 気温(℃) 湿度(%) 気圧(hPa) 天気現象
13 02:00 1 10km以上 9 100 1012
13 01:00 北西 1 10km以上 11 94 1012
13 00:00 北北西 2 10km以上 11 94 1012
12 23:00 北西 1 10km以上 12 94 1012
12 22:00 西 1 10km以上 15 82 1012
12 21:00 西南西 1 10km以上 19 64 1011
12 20:30 南西 1 10km以上 19 64 1011
12 20:00 西南西 2 10km以上 19 64 1011
12 19:30 南南東 1 10km以上 19 68 1011
12 19:00 南南西 3 10km以上 20 64 1011
12 18:30 南南西 3 10km以上 21 60 1011
12 18:00 2 10km以上 20 64 1011
12 17:30 東南東 2 10km以上 21 60 1011
12 17:00 南東 3 10km以上 21 60 1011
12 16:30 南南西 5 10km以上 22 60 1011
12 16:00 南西 7 10km以上 23 57 1011
12 15:30 南南西 5 10km以上 23 57 1011
12 15:00 南西 5 10km以上 23 57 1011
12 14:30 南西 5 10km以上 23 57 1011
12 14:00 南西 4 10km以上 23 57 1011
12 13:30 南西 4 10km以上 24 54 1011
12 13:00 2 10km以上 23 53 1012
12 12:30 南東 3 10km以上 24 50 1012
12 12:00 1 10km以上 23 53 1012
12 11:30 西北西 1 10km以上 23 50 1012
12 11:00 西 1 10km以上 24 50 1012
12 10:30 東南東 2 10km以上 21 64 1012
12 10:00 南西 1 10km以上 22 60 1012
12 09:30 1 10km以上 20 68 1013
12 09:00 1 10km以上 18 73 1013
12 08:30 1 10km以上 16 77 1013
12 08:00 1 10km以上 14 88 1013
12 07:00 南西 1 10km以上 11 94 1013
UHMM 121500Z 09001MPS 9999 FEW040 09/09 Q1012 RMK QFE744 R28/07002MPS
UHMM 121400Z 31001MPS 9999 FEW040 11/10 Q1012 RMK QFE744 R28/07001MPS
UHMM 121300Z 33002MPS 9999 FEW040 11/10 Q1012 RMK QFE744 R28/35001MPS
UHMM 121200Z 31001MPS 9999 FEW040 12/11 Q1012 RMK QFE744 R28/00000MPS
UHMM 121100Z 27001MPS 9999 FEW040 15/12 Q1012 RMK QFE744 R28/27001MPS
UHMM 121000Z 25001MPS 9999 FEW040 19/12 Q1011 RMK QFE744 R28/30004MPS
UHMM 120930Z 23001MPS 9999 FEW040 19/12 Q1011 R10/70D NOSIG RMK QFE743 R28/29004MPS
UHMM 120900Z 25002MPS 170V310 9999 FEW040 19/12 Q1011 R10/70D NOSIG RMK QFE743 R28/30002MPS 230V340
UHMM 120830Z 15001MPS 9999 FEW040 19/13 Q1011 R10/70D NOSIG RMK QFE743 R28/30003MPS
UHMM 120800Z 20003MPS 140V230 9999 FEW040 20/13 Q1011 R10/70D NOSIG RMK QFE743 R28/27004MPS
UHMM 120730Z 21003MPS 9999 SCT040CB 21/13 Q1011 R10/70D NOSIG RMK QFE743 R28/28003MPS
UHMM 120700Z 17002MPS 120V220 9999 SCT040CB 20/13 Q1011 R10/70D NOSIG RMK QFE743 R28/28004MPS
UHMM 120630Z 12002MPS 9999 SCT040CB 21/13 Q1011 R10/70D NOSIG RMK QFE743 R28/26003MPS
UHMM 120600Z 14003MPS 040V210 9999 SCT040CB 21/13 Q1011 R10/70D NOSIG RMK QFE743 R28/22004MPS 180V250
UHMM 120530Z 21005MPS 9999 SCT040CB 22/14 Q1011 R10/70D NOSIG RMK QFE743 R28/25005MPS
UHMM 120500Z 22007MPS 9999 SCT040CB 23/14 Q1011 R10/70D NOSIG RMK QFE743 R28/25006MPS
UHMM 120430Z 21005MPS 9999 SCT040CB 23/14 Q1011 R10/70D NOSIG RMK QFE743 R28/25006MPS
UHMM 120400Z 22005MPS 9999 SCT040CB 23/14 Q1011 R10/70D NOSIG RMK QFE743 R28/25006MPS
UHMM 120330Z 22005MPS 9999 SCT040CB 23/14 Q1011 R10/70D NOSIG RMK QFE743 R28/26005MPS
UHMM 120300Z 22004MPS 9999 SCT040CB 23/14 Q1011 R10/70D NOSIG RMK QFE743 R28/27004MPS
UHMM 120230Z 23004MPS 190V260 9999 SCT040CB 24/14 Q1011 R10/70D NOSIG RMK QFE743 R28/22003MPS 150V270
UHMM 120200Z 17002MPS 9999 FEW040CB SCT046 23/13 Q1012 R10/70D NOSIG RMK QFE744 R28/22002MPS
UHMM 120130Z 14003MPS 9999 FEW040CB SCT046 24/13 Q1012 R10/70D NOSIG RMK QFE744 R28/18003MPS 130V220
UHMM 120100Z 09001MPS 9999 FEW040CB SCT046 23/13 Q1012 R10/70D NOSIG RMK QFE744 R28/17002MPS
UHMM 120030Z 30001MPS 9999 SCT040CB 23/12 Q1012 R10/70D NOSIG RMK QFE744 R28/15002MPS
UHMM 120000Z 27001MPS 9999 SCT040 24/13 Q1012 R10/70D NOSIG RMK QFE744 R28/27002MPS 190V320
UHMM 112330Z 12002MPS 080V150 9999 SCT040 21/14 Q1012 R10/70D NOSIG RMK QFE744 R28/22001MPS
UHMM 112300Z 22001MPS 9999 FEW040 22/14 Q1012 R10/70D NOSIG RMK QFE744 R28/23002MPS
UHMM 112230Z 18001MPS 9999 NSC 20/14 Q1013 R10/70D NOSIG RMK QFE744 R28/29001MPS
UHMM 112200Z 19001MPS 9999 NSC 18/13 Q1013 R10/70D NOSIG RMK QFE745 R28/30001MPS
UHMM 112130Z 19001MPS 9999 NSC 16/12 Q1013 R10/70D NOSIG RMK QFE745 R28/00000MPS
UHMM 112100Z 17001MPS 9999 NSC 14/12 Q1013 R10/70D RMK QFE745 R28/00000MPS
UHMM 112000Z 22001MPS 9999 SCT007 11/10 Q1013 RMK MT OBSC QFE745 R28/00000MPS